^^
Station Historical Data
Daily Summary for May 21, 2017 Units:  English    Metric   Both
« Previous Day
Next Day »
Daily Weekly Monthly Yearly Custom
  High: Low: Average:
Temperature: 67.9 °F 46.4 °F 58.4 °F
Dew Point: 46.1 °F 35.9 °F 40.8 °F
Humidity: 91% 33% 56%
Wind Speed: 6.0mph 0.0mph 1.4mph
Wind Gust: 13.0mph - -
Wind- - SSW
Pressure: 30.40 in 30.26 in -
Precipitation: 0.00 in    
Historical Graphs
 
 
Tabular Data for May 21, 2017
Time Temperature Dew Point Pressure Wind Wind Speed Wind Gust Humidity Rainfall Rate (Hourly) Conditions
00:00 51.1 °F 45.2 °F 30.34 in Calm   1.0 mph 80% 0.00 in CLR
00:15 50.8 °F 45.2 °F 30.35 in Calm     81% 0.00 in CLR
00:30 50.3 °F 45.3 °F 30.35 in Calm   1.0 mph 83% 0.00 in CLR
00:45 50.3 °F 45.3 °F 30.35 in Calm     83% 0.00 in CLR
01:00 49.6 °F 45.0 °F 30.35 in Calm     84% 0.00 in CLR
02:15 51.0 °F 43.4 °F 30.33 in Calm   4.0 mph 75% 0.00 in CLR
02:45 49.9 °F 43.6 °F 30.33 in Calm     79% 0.00 in CLR
03:00 49.3 °F 43.7 °F 30.34 in Calm     81% 0.00 in CLR
03:15 48.2 °F 43.6 °F 30.34 in Calm     84% 0.00 in CLR
03:30 47.4 °F 43.4 °F 30.34 in Calm     86% 0.00 in CLR
03:45 46.9 °F 43.5 °F 30.34 in Calm     88% 0.00 in CLR
04:00 46.4 °F 43.3 °F 30.34 in Calm     89% 0.00 in CLR
04:15 46.5 °F 43.7 °F 30.35 in Calm     90% 0.00 in CLR
04:30 46.9 °F 43.9 °F 30.34 in Calm     89% 0.00 in CLR
04:45 47.1 °F 44.0 °F 30.35 in Calm     89% 0.00 in CLR
05:00 47.0 °F 43.9 °F 30.36 in Calm     89% 0.00 in CLR
05:15 46.7 °F 43.6 °F 30.36 in Calm     89% 0.00 in CLR
05:30 47.0 °F 43.9 °F 30.36 in Calm     89% 0.00 in CLR
05:45 46.8 °F 44.0 °F 30.36 in Calm     90% 0.00 in CLR
06:00 46.6 °F 44.1 °F 30.37 in Calm     91% 0.00 in CLR
06:15 46.7 °F 44.2 °F 30.38 in Calm     91% 0.00 in CLR
06:30 47.8 °F 44.7 °F 30.38 in Calm     89% 0.00 in CLR
06:45 49.2 °F 44.9 °F 30.38 in Calm     85% 0.00 in CLR
07:00 50.3 °F 45.1 °F 30.37 in Calm     82% 0.00 in CLR
07:15 51.1 °F 45.2 °F 30.37 in Calm     80% 0.00 in CLR
07:30 52.5 °F 45.1 °F 30.37 in Calm     76% 0.00 in CLR
07:45 54.9 °F 44.5 °F 30.37 in Calm     68% 0.00 in CLR
08:00 56.7 °F 45.1 °F 30.37 in Calm   1.0 mph 65% 0.00 in CLR
08:15 58.7 °F 46.1 °F 30.37 in Calm   1.0 mph 63% 0.00 in CLR
08:30 59.4 °F 43.7 °F 30.38 in Calm   3.0 mph 56% 0.00 in CLR
08:45 60.8 °F 41.5 °F 30.39 in East 1.0 mph 3.0 mph 49% 0.00 in CLR
09:00 61.5 °F 40.5 °F 30.39 in SSW 1.0 mph 5.0 mph 46% 0.00 in CLR
09:15 61.4 °F 39.9 °F 30.39 in SSW 2.0 mph 5.0 mph 45% 0.00 in CLR
09:30 62.2 °F 40.6 °F 30.40 in SSW 1.0 mph 7.0 mph 45% 0.00 in CLR
09:45 62.6 °F 38.6 °F 30.39 in SSW 2.0 mph 5.0 mph 41% 0.00 in CLR
10:00 62.8 °F 40.0 °F 30.39 in ENE 2.0 mph 6.0 mph 43% 0.00 in CLR
10:15 63.0 °F 39.5 °F 30.39 in SSW 1.0 mph 9.0 mph 42% 0.00 in FEW
10:30 63.5 °F 40.0 °F 30.38 in SSW 3.0 mph 8.0 mph 42% 0.00 in FEW
10:45 64.6 °F 41.0 °F 30.40 in South 3.0 mph 6.0 mph 42% 0.00 in FEW
11:00 64.7 °F 41.7 °F 30.39 in WSW 2.0 mph 6.0 mph 43% 0.00 in FEW
11:15 64.5 °F 41.5 °F 30.39 in WSW 3.0 mph 8.0 mph 43% 0.00 in CLR
11:30 64.1 °F 40.5 °F 30.39 in SW 3.0 mph 8.0 mph 42% 0.00 in CLR
11:45 65.8 °F 42.0 °F 30.39 in WSW 2.0 mph 6.0 mph 42% 0.00 in CLR
12:00 65.6 °F 41.9 °F 30.38 in SSE 2.0 mph 7.0 mph 42% 0.00 in CLR
12:15 65.5 °F 42.4 °F 30.37 in SSW 3.0 mph 12.0 mph 43% 0.00 in CLR
12:30 66.4 °F 42.6 °F 30.36 in SW 2.0 mph 9.0 mph 42% 0.00 in CLR
12:45 66.5 °F 43.3 °F 30.36 in South 3.0 mph 10.0 mph 43% 0.00 in CLR
13:00 66.7 °F 42.9 °F 30.36 in SW 2.0 mph 9.0 mph 42% 0.00 in CLR
13:15 67.3 °F 42.1 °F 30.34 in South 2.0 mph 12.0 mph 40% 0.00 in CLR
13:30 67.2 °F 41.4 °F 30.34 in South 3.0 mph 9.0 mph 39% 0.00 in CLR
13:45 67.9 °F 40.7 °F 30.34 in SSW 1.0 mph 12.0 mph 37% 0.00 in CLR
14:00 67.7 °F 39.8 °F 30.34 in SSW 2.0 mph 12.0 mph 36% 0.00 in CLR
14:15 67.5 °F 40.3 °F 30.33 in SE 2.0 mph 13.0 mph 37% 0.00 in CLR
14:30 67.7 °F 39.8 °F 30.33 in SW 3.0 mph 12.0 mph 36% 0.00 in CLR
14:45 67.9 °F 39.2 °F 30.33 in West 5.0 mph 9.0 mph 35% 0.00 in CLR
15:00 67.6 °F 39.7 °F 30.33 in SW 2.0 mph 9.0 mph 36% 0.00 in CLR
15:15 67.2 °F 37.9 °F 30.32 in SW 5.0 mph 12.0 mph 34% 0.00 in CLR
15:30 67.1 °F 38.6 °F 30.32 in South 3.0 mph 9.0 mph 35% 0.00 in CLR
15:45 66.6 °F 36.6 °F 30.31 in SSE 2.0 mph 12.0 mph 33% 0.00 in CLR
16:00 67.4 °F 38.7 °F 30.31 in SSW 2.0 mph 12.0 mph 35% 0.00 in CLR
16:15 66.9 °F 38.3 °F 30.30 in SSW 3.0 mph 9.0 mph 35% 0.00 in CLR
16:30 66.4 °F 36.4 °F 30.30 in South 3.0 mph 13.0 mph 33% 0.00 in CLR
16:45 66.5 °F 36.4 °F 30.30 in SW 6.0 mph 13.0 mph 33% 0.00 in CLR
17:00 66.0 °F 37.5 °F 30.30 in SW 3.0 mph 12.0 mph 35% 0.00 in CLR
17:15 65.9 °F 36.7 °F 30.29 in SW 3.0 mph 9.0 mph 34% 0.00 in CLR
17:30 64.9 °F 37.2 °F 30.29 in SW 1.0 mph 12.0 mph 36% 0.00 in CLR
17:45 64.6 °F 36.3 °F 30.29 in SW 5.0 mph 12.0 mph 35% 0.00 in CLR
18:00 64.1 °F 35.9 °F 30.29 in SW 5.0 mph 13.0 mph 35% 0.00 in CLR
18:15 63.7 °F 36.2 °F 30.29 in SW 1.0 mph 10.0 mph 36% 0.00 in CLR
18:30 63.6 °F 37.5 °F 30.30 in Calm   12.0 mph 38% 0.00 in CLR
18:45 61.9 °F 37.3 °F 30.29 in SSW 2.0 mph 9.0 mph 40% 0.00 in CLR
19:00 61.2 °F 37.9 °F 30.28 in West 1.0 mph 7.0 mph 42% 0.00 in CLR
19:15 60.2 °F 37.6 °F 30.29 in SSW 2.0 mph 12.0 mph 43% 0.00 in CLR
19:30 59.4 °F 38.1 °F 30.29 in SSW 1.0 mph 5.0 mph 45% 0.00 in CLR
19:45 58.7 °F 37.4 °F 30.29 in SSW 2.0 mph 8.0 mph 45% 0.00 in CLR
20:00 58.2 °F 37.5 °F 30.29 in SSW 1.0 mph 9.0 mph 46% 0.00 in CLR
20:15 57.7 °F 37.1 °F 30.29 in SSW 3.0 mph 9.0 mph 46% 0.00 in FEW
20:30 57.4 °F 37.3 °F 30.29 in WSW 2.0 mph 9.0 mph 47% 0.00 in FEW
20:45 57.1 °F 37.0 °F 30.28 in SSW 2.0 mph 7.0 mph 47% 0.00 in FEW
21:00 56.9 °F 37.4 °F 30.28 in SW 3.0 mph 8.0 mph 48% 0.00 in FEW
21:15 56.8 °F 37.8 °F 30.28 in SSW 2.0 mph 8.0 mph 49% 0.00 in SCT
21:30 56.7 °F 38.3 °F 30.28 in South 1.0 mph 6.0 mph 50% 0.00 in SCT
21:45 56.6 °F 38.6 °F 30.28 in SW 1.0 mph 7.0 mph 51% 0.00 in SCT
22:00 56.4 °F 38.0 °F 30.29 in SW 1.0 mph 12.0 mph 50% 0.00 in SCT
22:15 56.4 °F 38.5 °F 30.28 in Calm   7.0 mph 51% 0.00 in OVC
22:30 56.3 °F 38.9 °F 30.28 in SW 2.0 mph 6.0 mph 52% 0.00 in OVC
22:45 56.2 °F 39.3 °F 30.28 in Calm   6.0 mph 53% 0.00 in OVC
23:00 56.0 °F 39.1 °F 30.27 in Calm   6.0 mph 53% 0.00 in OVC
23:15 55.9 °F 39.5 °F 30.27 in South 2.0 mph 6.0 mph 54% 0.00 in BKN
23:30 55.8 °F 40.3 °F 30.27 in SW 1.0 mph 5.0 mph 56% 0.00 in BKN
23:45 55.8 °F 40.3 °F 30.26 in SSW 2.0 mph 4.0 mph 56% 0.00 in BKN
TarryTown NY Weather
Compliments of Weather Underground - 1.5 mb